航空気象通報

ウインドサーファーのための航空気象通報による風予報です。

7/8-7/10の航空気象通報

2018年07月08日 21時05分01秒 | TAF
羽田空港
TAF RJTT 081105Z 0812/0918 17008KT 9999 FEW015 SCT030
TEMPO 0818/0822 4000 -TSRA BR FEW005 BKN008 FEW020CB
日本時間8日21時-10日03時:170度から8ノットの風

但し、9日03-07時の間:時々

静岡空港
TAF RJNS 081106Z 0812/0918 12004KT 9999 FEW020
TEMPO 0818/0821 TS FEW008 BKN015 FEW020CB
TEMPO 0900/0903 TS FEW008 BKN015 FEW020CB
BECMG 0909/0912 FEW005 BKN008
TEMPO 0909/0912 4000 -SHRA BR FEW003 BKN005
日本時間8日21時-10日03時:120度から4ノットの風
、9日18-21時の後、
但し、9日03-06時の間:時々
但し、9日09-12時の間:時々
但し、9日18-21時の間:時々

福岡空港
TAF RJFF 081106Z 0812/0918 15007KT 9999 FEW010 SCT030
BECMG 0903/0906 34010KT
BECMG 0909/0912 15006KT
日本時間8日21時-9日12時:150度から7ノットの風
12-15時:風が変化
15-18時:340度から10ノットの風
18-21時:風が変化
21時-10日03時:150度から6ノットの風


那覇空港
TAF ROAH 081105Z 0812/0918 10007KT 9999 FEW015
BECMG 0816/0818 05010KT
TEMPO 0912/0918 06018G28KT
日本時間8日21時-9日01時:100度から7ノットの風
01-03時:風が変化
03時-10日03時:050度から10ノットの風
但し、9日21時-10日03時の間:時々060度から18ノット、突風28ノット


石垣空港
TAF ROIG 081108Z 0812/0918 11007KT 9999 FEW015
BECMG 0900/0903 05013KT
日本時間8日21時-9日09時:110度から7ノットの風
09-12時:風が変化
12時-10日03時:050度から13ノットの風


マウイのカフルイ空港
PHOG 081137Z 0812/0912 05010KT P6SM VCSH SCT030 SCT050
FM082000 05015G23KT P6SM FEW030 SCT050
FM090500 05012G20KT P6SM VCSH SCT030 BKN050 AMD LTD TO VIS AND WIND TIL 081600
ハワイ時間8日02-10時:050度から10ノットの風
10-19時:050度から15ノット、突風23ノット

19時-9日02時:050度から12ノット、突風20ノット


サイパン空港
PGSN 081129Z 0812/0912 13009KT P6SM VCSH FEW018 SCT050
マリアナ時間8日22時-9日22時:130度から9ノットの風
ジャンル:
お天気
コメント   この記事についてブログを書く
« 7/7-7/9の航空気象通報 | トップ | 7/13-7/15の航空気象通報 »
最近の画像もっと見る

コメントを投稿

ブログ作成者から承認されるまでコメントは反映されません。

TAF」カテゴリの最新記事